D/T METAR WX W/DIR W/SPE G/SPE TEMP DEWP
19/03/19 02:50 EGQS 190250Z 19003KT CAVOK 03/01 Q1018 BLU S (190°) 3.5mph 3°C 1°C
19/03/19 01:50 EGQS 190150Z 20004KT 9999 FEW035 SCT130 02/01 Q1018 BLU SSW (200°) 4.6mph 2°C 1°C
19/03/19 00:50 EGQS 190050Z 20005KT CAVOK 02/02 Q1018 BLU SSW (200°) 5.8mph 2°C 2°C
18/03/19 23:50 EGQS 182350Z 21004KT CAVOK 03/02 Q1018 BLU SSW (210°) 4.6mph 3°C 2°C
18/03/19 22:50 EGQS 182250Z 18005KT 9999 FEW038 02/00 Q1018 BLU S (180°) 5.8mph 2°C 0°C
18/03/19 21:50 EGQS 182150Z 17004KT 9999 FEW040 03/01 Q1018 BLU S (170°) 4.6mph 3°C 1°C
18/03/19 20:50 EGQS 182050Z 19005KT 9999 FEW040 04/02 Q1018 BLU S (190°) 5.8mph 4°C 2°C
18/03/19 19:50 EGQS 181950Z 20004KT 9999 FEW038 05/02 Q1018 BLU SSW (200°) 4.6mph 5°C 2°C
18/03/19 18:50 EGQS 181850Z 16004KT 9999 SCT039 07/04 Q1017 BLU SSE (160°) 4.6mph 7°C 4°C
18/03/19 17:50 EGQS 181750Z 11003KT 9999 SCT042 SCT160 07/04 Q1017 BLU ESE (110°) 3.5mph 7°C 4°C
18/03/19 16:50 EGQS 181650Z 09007KT 9999 BKN044 08/03 Q1016 BLU NOSIG E (90°) 8.1mph 8°C 3°C
18/03/19 15:50 EGQS 181550Z 08008KT 9999 FEW038 SCT047 08/03 Q1016 BLU NOSIG E (80°) 9.2mph 8°C 3°C
18/03/19 14:50 EGQS 181450Z 08009KT 9999 FEW035 07/02 Q1016 BLU NOSIG E (80°) 10.4mph 7°C 2°C
18/03/19 13:50 EGQS 181350Z 05007KT 9999 FEW041 08/03 Q1015 BLU NOSIG NE (50°) 8.1mph 8°C 3°C
18/03/19 12:50 EGQS 181250Z 04006KT 9999 FEW036 07/02 Q1015 BLU NOSIG NE (40°) 6.9mph 7°C 2°C
18/03/19 11:50 EGQS 181150Z 24004KT 9999 FEW030 10/02 Q1015 BLU NOSIG WSW (240°) 4.6mph 10°C 2°C
18/03/19 10:50 EGQS 181050Z 21004KT 9999 FEW028 09/01 Q1015 BLU NOSIG SSW (210°) 4.6mph 9°C 1°C
18/03/19 09:50 EGQS 180950Z 22007KT CAVOK 07/02 Q1014 BLU NOSIG SW (220°) 8.1mph 7°C 2°C
18/03/19 08:50 EGQS 180850Z 19004KT CAVOK 05/01 Q1014 BLU NOSIG S (190°) 4.6mph 5°C 1°C
18/03/19 07:50 EGQS 180750Z 18004KT CAVOK 02/M00 Q1013 BLU NOSIG S (180°) 4.6mph 2°C 0°C
18/03/19 06:50 EGQS 180650Z 24007KT CAVOK 01/M01 Q1013 BLU NOSIG WSW (240°) 8.1mph 1°C -1°C
18/03/19 05:50 EGQS 180550Z 23007KT CAVOK 00/M02 Q1012 BLU SW (230°) 8.1mph 0°C -2°C
18/03/19 04:50 EGQS 180450Z 25010KT CAVOK 02/M02 Q1012 BLU WSW (250°) 11.5mph 2°C -2°C
18/03/19 03:50 EGQS 180350Z 24009KT CAVOK 01/M02 Q1012 BLU WSW (240°) 10.4mph 1°C -2°C
18/03/19 02:50 EGQS 180250Z 25010KT CAVOK 01/M01 Q1012 BLU WSW (250°) 11.5mph 1°C -1°C
18/03/19 01:50 EGQS 180150Z 25010KT CAVOK 01/M01 Q1011 BLU WSW (250°) 11.5mph 1°C -1°C
18/03/19 00:50 EGQS 180050Z 27009KT CAVOK 04/01 Q1011 BLU W (270°) 10.4mph 4°C 1°C
17/03/19 23:50 EGQS 172350Z 28013KT CAVOK 04/01 Q1011 BLU W (280°) 15.0mph 4°C 1°C
17/03/19 22:50 EGQS 172250Z 29012KT 9999 BKN045 04/01 Q1010 BLU WNW (290°) 13.8mph 4°C 1°C
17/03/19 21:50 EGQS 172150Z 32015KT CAVOK 05/00 Q1010 BLU NW (320°) 17.3mph 5°C 0°C
17/03/19 20:50 EGQS 172050Z 30015KT 9999 FEW045 SCT065 05/01 Q1008 BLU WNW (300°) 17.3mph 5°C 1°C
17/03/19 19:50 EGQS 171950Z 30015KT 9999 FEW044 SCT065 05/01 Q1008 BLU WNW (300°) 17.3mph 5°C 1°C
17/03/19 18:50 EGQS 171850Z 31018KT 9999 FEW035 SCT060 06/M00 Q1007 BLU NW (310°) 20.7mph 6°C 0°C
17/03/19 17:50 EGQS 171750Z 32017KT 9999 FEW022TCU SCT060 06/M01 Q1005 BLU NW (320°) 19.6mph 6°C -1°C
17/03/19 16:50 EGQS 171650Z 32017KT 9999 FEW020CB SCT030 BKN050 06/01 Q1004 BLU NW (320°) 19.6mph 6°C 1°C
17/03/19 15:50 EGQS 171550Z 32014KT 9999 FEW022TCU 07/02 Q1002 BLU NW (320°) 16.1mph 7°C 2°C
17/03/19 14:50 EGQS 171450Z 31022KT 9999 FEW018CB FEW020TCU SCT042 BKN060 05/03 Q1001 BLU NW (310°) 25.3mph 5°C 3°C
17/03/19 14:24 EGQS 171424Z 34017KT 9999 SHRA FEW018CB SCT020 BKN050 05/02 Q1001 RESHGS WHT SHRA NNW (340°) 19.6mph 5°C 2°C
17/03/19 14:14 EGQS 171414Z 32016KT 7000 3500N SHGS SCT015CB FEW020TCU BKN044 05/02 Q1000 YLO1 SHGS NW (320°) 18.4mph 5°C 2°C
17/03/19 12:50 EGQS 171250Z AUTO 34016KT 9999 // NCD 06/03 Q0998 NNW (340°) 18.4mph 6°C 3°C
17/03/19 11:50 EGQS 171150Z 33016KT 9999 FEW023TCU SCT033 BKN050 06/04 Q0996 RESHRA BLU NNW (330°) 18.4mph 6°C 4°C
17/03/19 10:50 EGQS 171050Z 30019KT 9999 -SHRA SCT018CB SCT022 05/03 Q0995 WHT -SHRA WNW (300°) 21.9mph 5°C 3°C
17/03/19 09:50 EGQS 170950Z 31016KT 9999 FEW012 FEW015CB SCT023 05/03 Q0993 RESHRA WHT NW (310°) 18.4mph 5°C 3°C
17/03/19 08:50 EGQS 170850Z 27017KT 9999 -SHRA FEW014 SCT018 BKN025 04/02 Q0991 WHT -SHRA W (270°) 19.6mph 4°C 2°C
17/03/19 07:50 EGQS 170750Z 26016KT 9999 FEW015CB SCT030 BKN050 04/02 Q0990 BLU W (260°) 18.4mph 4°C 2°C
17/03/19 06:50 EGQS 170650Z 26015KT 9999 FEW015 SCT038 BKN065 04/02 Q0989 BLU W (260°) 17.3mph 4°C 2°C
17/03/19 05:50 EGQS 170550Z 27018KT 9999 FEW015 SCT035 BKN090 04/02 Q0988 BLU W (270°) 20.7mph 4°C 2°C
17/03/19 04:50 EGQS 170450Z 28019KT 9999 SCT015 BKN035 BKN050 04/02 Q0987 WHT W (280°) 21.9mph 4°C 2°C
17/03/19 03:50 EGQS 170350Z 27019KT 9999 SCT016 SCT045 04/02 Q0987 WHT W (270°) 21.9mph 4°C 2°C
17/03/19 02:50 EGQS 170250Z 28018KT 9999 FEW018 BKN035 04/01 Q0986 BLU W (280°) 20.7mph 4°C 1°C
17/03/19 01:50 EGQS 170150Z 28016KT 9999 SCT020 BKN050 04/02 Q0986 WHT W (280°) 18.4mph 4°C 2°C
17/03/19 00:50 EGQS 170050Z 26013KT 9999 SCT018CB BKN025 BKN070 03/01 Q0986 WHT W (260°) 15.0mph 3°C 1°C
16/03/19 23:50 EGQS 162350Z 26014KT 9999 SCT020 SCT040 BKN080 04/01 Q0986 WHT W (260°) 16.1mph 4°C 1°C
16/03/19 23:02 EGQS 162302Z 28018KT 9999 FEW015 SCT040 BKN080 03/01 Q0985 BLU W (280°) 20.7mph 3°C 1°C
16/03/19 21:50 EGQS 162150Z 28015KT 9999 SCT010 BKN023 BKN040 03/02 Q0985 GRN W (280°) 17.3mph 3°C 2°C
16/03/19 20:50 EGQS 162050Z 29016KT 9999 RASN SCT009 BKN015 BKN022 03/02 Q0985 GRN RA SN WNW (290°) 18.4mph 3°C 2°C
16/03/19 19:50 EGQS 161950Z 29015KT 9999 -RASN FEW007 BKN010 BKN020 03/02 Q0984 GRN -RA -SN WNW (290°) 17.3mph 3°C 2°C
16/03/19 18:50 EGQS 161850Z 32013KT 8000 RA BKN008 BKN015 02/01 Q0984 GRN RA NW (320°) 15.0mph 2°C 1°C
16/03/19 17:50 EGQS 161750Z 34015KT 8000 RA BKN008 BKN017 02/01 Q0984 GRN RA NNW (340°) 17.3mph 2°C 1°C
16/03/19 16:50 EGQS 161650Z 34013KT 7000 RA BKN007 BKN016 02/02 Q0984 GRN RA NNW (340°) 15.0mph 2°C 2°C
16/03/19 15:50 EGQS 161550Z 02009KT 8000 RA BKN008 BKN015 02/02 Q0984 GRN RA NNE (20°) 10.4mph 2°C 2°C
16/03/19 14:50 EGQS 161450Z 05010KT 8000 RA BKN009 BKN020 03/02 Q0985 GRN RA NE (50°) 11.5mph 3°C 2°C
16/03/19 13:50 EGQS 161350Z 06008KT 8000 RA BKN009 BKN017 03/01 Q0986 GRN RA ENE (60°) 9.2mph 3°C 1°C
16/03/19 12:50 EGQS 161250Z 09006KT 9999 -RA FEW010 SCT015 BKN035 03/01 Q0987 WHT -RA E (90°) 6.9mph 3°C 1°C
16/03/19 11:50 EGQS 161150Z 08004KT 9999 -RA FEW010 SCT015 BKN028 03/01 Q0988 WHT -RA E (80°) 4.6mph 3°C 1°C
16/03/19 10:50 EGQS 161050Z 12005KT 9999 FEW010 OVC055 03/01 Q0989 BLU ESE (120°) 5.8mph 3°C 1°C
16/03/19 09:50 EGQS 160950Z 16009KT 9999 -RA FEW009 BKN030 OVC047 03/01 Q0990 BLU -RA SSE (160°) 10.4mph 3°C 1°C
16/03/19 08:50 EGQS 160850Z 20009KT 9999 -RA FEW025 OVC040 03/01 Q0991 BLU -RA SSW (200°) 10.4mph 3°C 1°C
16/03/19 07:50 EGQS 160750Z 19010KT 9999 FEW014 OVC046 03/00 Q0992 BLU S (190°) 11.5mph 3°C 0°C
16/03/19 06:50 EGQS 160650Z 21007KT CAVOK 03/M00 Q0992 BLU SSW (210°) 8.1mph 3°C 0°C
16/03/19 05:50 EGQS 160550Z 21005KT CAVOK 03/M00 Q0993 BLU NOSIG SSW (210°) 5.8mph 3°C 0°C
16/03/19 04:50 EGQS 160450Z 21007KT CAVOK 03/M00 Q0994 BLU SSW (210°) 8.1mph 3°C 0°C
16/03/19 03:50 EGQS 160350Z 20005KT CAVOK 03/M00 Q0995 BLU SSW (200°) 5.8mph 3°C 0°C
16/03/19 02:50 EGQS 160250Z 21006KT CAVOK 02/M00 Q0995 BLU SSW (210°) 6.9mph 2°C 0°C
16/03/19 01:50 EGQS 160150Z 23009KT CAVOK 03/00 Q0996 BLU NOSIG SW (230°) 10.4mph 3°C 0°C
16/03/19 00:50 EGQS 160050Z 25014KT CAVOK 03/00 Q0996 BLU NOSIG WSW (250°) 16.1mph 3°C 0°C
15/03/19 23:50 EGQS 152350Z 24019KT CAVOK 03/00 Q0997 BLU WSW (240°) 21.9mph 3°C 0°C
15/03/19 22:50 EGQS 152250Z 24013KT 9999 FEW035 OVC250 03/00 Q0997 BLU NOSIG WSW (240°) 15.0mph 3°C 0°C
15/03/19 21:50 EGQS 152150Z 25015KT 9999 FEW028 SCT045 OVC250 03/00 Q0996 BLU WSW (250°) 17.3mph 3°C 0°C
15/03/19 20:50 EGQS 152050Z 25015KT 9999 FEW040 BKN250 03/00 Q0996 BLU WSW (250°) 17.3mph 3°C 0°C
15/03/19 19:50 EGQS 151950Z 24021G31KT CAVOK 03/01 Q0996 BLU WSW (240°) 24.2mph 35.7mph 3°C 1°C
15/03/19 18:50 EGQS 151850Z 24018KT 9999 SCT035 SCT250 04/01 Q0995 BLU WSW (240°) 20.7mph 4°C 1°C
15/03/19 17:50 EGQS 151750Z 25019KT 9999 SCT035 SCT250 04/01 Q0994 BLU WSW (250°) 21.9mph 4°C 1°C
15/03/19 16:50 EGQS 151650Z 25022G32KT 9999 VCSH FEW018CB 05/02 Q0993 BLU TEMPO 6000 SHRA SCT018CB WHT VCSH WSW (250°) 25.3mph 36.8mph 5°C 2°C
15/03/19 15:50 EGQS 151550Z 26020KT 9999 VCSH FEW018CB 06/03 Q0992 BLU TEMPO 6000 SHRA SCT020CB WHT VCSH W (260°) 23.0mph 6°C 3°C
15/03/19 14:50 EGQS 151450Z 28022G35KT 9999 -SHRA FEW012 FEW018CB 04/03 Q0992 RESHRA BLU TEMPO 6000 SHRA SCT020CB WHT -SHRA W (280°) 25.3mph 40.3mph 4°C 3°C
15/03/19 14:43 EGQS 151443Z 27019G29KT 5000 SHRA FEW010 BKN018CB 05/03 Q0992 WHT TEMPO 9999 NSW FEW018 BLU SHRA W (270°) 21.9mph 33.4mph 5°C 3°C
15/03/19 13:50 EGQS 151350Z 26026KT 9999 FEW018CB 06/02 Q0991 BLU TEMPO 6000 SHRA SCT018CB WHT W (260°) 29.9mph 6°C 2°C
15/03/19 12:50 EGQS 151250Z 25021KT 9999 VCSH FEW018CB 06/04 Q0990 BLU TEMPO 6000 SHRA SCT020CB VCSH WSW (250°) 24.2mph 6°C 4°C
15/03/19 11:50 EGQS 151150Z 25023G33KT 9999 VCSH FEW018CB 06/01 Q0990 BLU TEMPO 6000 SHRA SCT020CB VCSH WSW (250°) 26.5mph 38.0mph 6°C 1°C
15/03/19 10:50 EGQS 151050Z 25020KT 9999 VCSH FEW019CB 06/03 Q0989 BLU TEMPO 6000 SCT020CB WHT VCSH WSW (250°) 23.0mph 6°C 3°C
15/03/19 09:50 EGQS 150950Z AUTO 25017KT 9999 // NCD 05/03 Q0988 WSW (250°) 19.6mph 5°C 3°C
15/03/19 08:50 EGQS 150850Z 25018KT 9999 SCT018 SCT025 05/03 Q0988 WHT TEMPO 6000 SHRA WHT WSW (250°) 20.7mph 5°C 3°C
15/03/19 07:50 EGQS 150750Z 26015KT 9999 -SHRA FEW015 SCT018CB BKN030 04/03 Q0987 WHT TEMPO FEW018 BLU -SHRA W (260°) 17.3mph 4°C 3°C
15/03/19 06:50 EGQS 150650Z 26014KT 9999 FEW010 SCT045 BKN120 04/03 Q0986 RERA BLU TEMPO 6000 SHRA BKN020CB WHT W (260°) 16.1mph 4°C 3°C
15/03/19 05:50 EGQS 150550Z 25011KT 9999 RA SCT024 SCT030 BKN040 05/03 Q0985 WHT RA WSW (250°) 12.7mph 5°C 3°C
15/03/19 04:50 EGQS 150450Z 24013KT 9999 FEW030 BKN040 BKN080 05/03 Q0985 BLU WSW (240°) 15.0mph 5°C 3°C
15/03/19 03:50 EGQS 150350Z 24007KT 9999 SCT030 BKN050 05/03 Q0986 BLU WSW (240°) 8.1mph 5°C 3°C
15/03/19 02:50 EGQS 150250Z 23009KT 9999 -RA FEW035 BKN040 OVC060 05/03 Q0987 BLU -RA SW (230°) 10.4mph 5°C 3°C
15/03/19 01:50 EGQS 150150Z 23009KT 9999 FEW035 SCT050 BKN060 05/03 Q0988 BLU SW (230°) 10.4mph 5°C 3°C
15/03/19 00:50 EGQS 150050Z 23015KT CAVOK 06/02 Q0989 BLU SW (230°) 17.3mph 6°C 2°C
14/03/19 23:50 EGQS 142350Z 22010KT 9999 FEW045 OVC080 06/02 Q0990 BLU SW (220°) 11.5mph 6°C 2°C
14/03/19 22:50 EGQS 142250Z 20007KT 9999 SCT040 BKN080 05/02 Q0991 BLU SSW (200°) 8.1mph 5°C 2°C
14/03/19 21:50 EGQS 142150Z 23007KT 9999 SCT040 BKN140 05/02 Q0992 BLU SW (230°) 8.1mph 5°C 2°C
14/03/19 20:50 EGQS 142050Z 22011KT 9999 SCT040 OVC140 06/03 Q0993 BLU SW (220°) 12.7mph 6°C 3°C
14/03/19 19:50 EGQS 141950Z 25016KT 9999 FEW045 BKN250 06/03 Q0993 BLU WSW (250°) 18.4mph 6°C 3°C
14/03/19 18:50 EGQS 141850Z 24013KT 9999 FEW025 BKN280 06/03 Q0993 BLU WSW (240°) 15.0mph 6°C 3°C
14/03/19 17:50 EGQS 141750Z 25015KT 9999 FEW025 BKN280 07/03 Q0993 BLU WSW (250°) 17.3mph 7°C 3°C
14/03/19 16:50 EGQS 141650Z 27015KT 9999 SCT027 BKN040 08/04 Q0993 BLU NOSIG W (270°) 17.3mph 8°C 4°C
14/03/19 15:50 EGQS 141550Z 25013KT 9999 FEW025 BKN043 09/04 Q0993 BLU NOSIG WSW (250°) 15.0mph 9°C 4°C
14/03/19 14:50 EGQS 141450Z 26018KT 9999 -SHRA FEW020CB SCT032 BKN050 08/04 Q0992 BLU TEMPO 7000 SHRA BKN020CB WHT -SHRA W (260°) 20.7mph 8°C 4°C
14/03/19 13:50 EGQS 141350Z 27022KT 9999 -SHRA FEW020CB SCT025 08/04 Q0992 BLU TEMPO 7000 -SHRA SCT020CB WHT -SHRA W (270°) 25.3mph 8°C 4°C
14/03/19 12:50 EGQS 141250Z 28019KT 9999 SCT025 08/04 Q0991 BLU TEMPO 7000 -SHRA SCT022 WHT W (280°) 21.9mph 8°C 4°C
14/03/19 11:50 EGQS 141150Z 28019KT 9999 FEW018CB 08/05 Q0991 BLU TEMPO 6000 SHRA SCT018CB WHT W (280°) 21.9mph 8°C 5°C
14/03/19 11:37 EGQS 141137Z 29024G34KT 9999 FEW018CB SCT040 06/04 Q0990 BLU TEMPO 5000 SHRA SCT018CB WHT WNW (290°) 27.6mph 39.1mph 6°C 4°C
14/03/19 10:50 EGQS 141050Z 28017KT 9999 FEW018CB SCT024 07/05 Q0990 WHT TEMPO 7000 -SHRA WHT W (280°) 19.6mph 7°C 5°C
14/03/19 10:30 EGQS 141030Z 29020KT 8000 -SHRA FEW018CB SCT040 06/04 Q0990 BLU TEMPO 5000 SHRA SCT018 WHT -SHRA WNW (290°) 23.0mph 6°C 4°C
14/03/19 10:19 EGQS 141019Z 29023KT 9999 4000W SHRA SCT020 BKN038 06/04 Q0990 GRN TEMPO 9999 NSW FEW020 BLU SHRA WNW (290°) 26.5mph 6°C 4°C
14/03/19 08:50 EGQS 140850Z 28023KT 9999 FEW018CB SCT025 06/04 Q0988 BLU TEMPO 7000 -SHRA SCT020 WHT W (280°) 26.5mph 6°C 4°C
14/03/19 07:50 EGQS 140750Z 28019KT 9999 FEW018CB 07/04 Q0987 BLU TEMPO 7000 -SHRA SCT020 WHT W (280°) 21.9mph 7°C 4°C
14/03/19 07:33 EGQS 140733Z 27016KT 9999 SCT023 SCT038 06/04 Q0987 WHT TEMPO FEW023 BLU W (270°) 18.4mph 6°C 4°C
14/03/19 06:50 EGQS 140650Z 26014KT 9999 FEW024 SCT038 05/03 Q0986 BLU TEMPO 7000 -SHRA SCT020 WHT W (260°) 16.1mph 5°C 3°C
14/03/19 05:50 EGQS 140550Z 26014KT 9999 FEW030 SCT250 06/04 Q0985 BLU W (260°) 16.1mph 6°C 4°C
14/03/19 04:50 EGQS 140450Z 24012KT 9999 FEW028 SCT037 BKN120 06/05 Q0985 BLU WSW (240°) 13.8mph 6°C 5°C
14/03/19 03:50 EGQS 140350Z 25013KT 9999 BKN037 OVC045 06/05 Q0985 BLU WSW (250°) 15.0mph 6°C 5°C
14/03/19 02:50 EGQS 140250Z 24016KT 9999 SCT040 OVC045 07/05 Q0985 BLU WSW (240°) 18.4mph 7°C 5°C
14/03/19 01:50 EGQS 140150Z 24015KT 9999 FEW038 SCT050 BKN080 06/06 Q0986 RERA BLU WSW (240°) 17.3mph 6°C 6°C
14/03/19 00:50 EGQS 140050Z 25014KT 9999 RA SCT030 BKN036 OVC047 07/06 Q0987 BLU RA WSW (250°) 16.1mph 7°C 6°C
13/03/19 23:50 EGQS 132350Z 22012KT 9999 -RA FEW020 OVC042 06/04 Q0988 RERA BLU -RA SW (220°) 13.8mph 6°C 4°C
13/03/19 22:50 EGQS 132250Z 22011KT 9999 -RA FEW020 OVC046 06/03 Q0990 BLU -RA SW (220°) 12.7mph 6°C 3°C
13/03/19 21:50 EGQS 132150Z 21006KT 9999 SCT039 BKN047 06/02 Q0992 BLU SSW (210°) 6.9mph 6°C 2°C
13/03/19 20:50 EGQS 132050Z 23009KT CAVOK 05/01 Q0994 BLU SW (230°) 10.4mph 5°C 1°C
13/03/19 19:50 EGQS 131950Z 25008KT 9999 FEW038 SCT100 BKN170 06/01 Q0996 BLU WSW (250°) 9.2mph 6°C 1°C
13/03/19 18:50 EGQS 131850Z 26024KT 9999 FEW020 BKN100 OVC200 06/02 Q0997 BLU W (260°) 27.6mph 6°C 2°C
13/03/19 17:50 EGQS 131750Z 26016KT 9999 FEW022 OVC110 07/03 Q0998 BLU W (260°) 18.4mph 7°C 3°C
13/03/19 17:03 EGQS 131703Z 27020KT 9999 VCSH FEW022 SCT040 BKN300 07/03 Q0998 RESHRA BLU TEMPO 7000 -SHRA SCT022 WHT VCSH W (270°) 23.0mph 7°C 3°C
13/03/19 15:50 EGQS 131550Z 27019KT 9999 VCSH FEW022 SCT031 08/03 Q0998 BLU TEMPO SCT022 WHT VCSH W (270°) 21.9mph 8°C 3°C
13/03/19 14:50 EGQS 131450Z 27018KT 9999 FEW022 SCT040 08/04 Q0998 BLU TEMPO 7000 -SHRA SCT022 WHT W (270°) 20.7mph 8°C 4°C
13/03/19 14:36 EGQS 131436Z 27016KT 9999 FEW022 BKN040 07/04 Q0998 BLU NOSIG W (270°) 18.4mph 7°C 4°C
13/03/19 14:08 EGQS 131408Z 27016KT 9999 7000SW -SHRA SCT022 SCT050 08/04 Q0998 WHT TEMPO 9999 NSW FEW022 BLU -SHRA W (270°) 18.4mph 8°C 4°C
13/03/19 12:50 EGQS 131250Z 28019KT 9999 FEW020 BKN037 08/04 Q0997 BLU NOSIG W (280°) 21.9mph 8°C 4°C
13/03/19 11:50 EGQS 131150Z 28015KT 9999 FEW022 BKN037 08/04 Q0997 BLU NOSIG W (280°) 17.3mph 8°C 4°C
13/03/19 10:50 EGQS 131050Z 30017KT 9999 FEW022 08/04 Q0995 BLU NOSIG WNW (300°) 19.6mph 8°C 4°C
13/03/19 09:50 EGQS 130950Z 30015KT 9999 FEW022 SCT032 07/04 Q0994 BLU TEMPO 5000 SHRA SCT018CB WHT WNW (300°) 17.3mph 7°C 4°C